createdAt,value
2018-04-25T00:00:34.385Z,6.57
2018-04-25T00:03:03.292Z,8.43
2018-04-25T00:05:32.230Z,8.53
2018-04-25T00:08:01.136Z,6.47
2018-04-25T00:10:30.122Z,6.53
2018-04-25T00:12:59.242Z,6.00
2018-04-25T00:15:28.186Z,6.23
2018-04-25T00:17:57.167Z,6.80
2018-04-25T00:20:26.070Z,6.03
2018-04-25T00:22:54.966Z,6.80
2018-04-25T00:25:24.132Z,9.47
2018-04-25T00:27:53.133Z,6.03
2018-04-25T00:30:22.072Z,5.70
2018-04-25T00:32:51.018Z,7.27
2018-04-25T00:35:20.820Z,5.90
2018-04-25T00:37:49.850Z,6.87
2018-04-25T00:40:18.798Z,6.90
2018-04-25T00:42:47.991Z,6.63
2018-04-25T00:45:17.028Z,6.90
2018-04-25T00:47:46.853Z,7.03
2018-04-25T00:50:15.787Z,5.57
2018-04-25T00:52:44.751Z,6.20
2018-04-25T00:55:14.614Z,5.07
2018-04-25T00:57:43.628Z,7.73
2018-04-25T01:00:13.416Z,7.97
2018-04-25T01:02:50.360Z,7.60
2018-04-25T01:08:40.205Z,6.00
2018-04-25T01:14:35.496Z,6.80
2018-04-25T01:17:07.211Z,6.53
2018-04-25T01:19:36.426Z,6.63
2018-04-25T01:22:14.862Z,7.50
2018-04-25T01:24:54.867Z,7.67
2018-04-25T01:27:54.134Z,6.37
2018-04-25T01:34:12.884Z,6.53
2018-04-25T01:37:07.160Z,8.03
2018-04-25T01:40:13.737Z,8.47
2018-04-25T01:46:31.091Z,6.50
2018-04-25T01:49:08.288Z,6.97
2018-04-25T01:51:55.021Z,7.80
2018-04-25T01:54:41.681Z,8.07
2018-04-25T01:57:28.333Z,7.23
2018-04-25T02:00:15.861Z,8.83
2018-04-25T02:02:43.989Z,8.73
2018-04-25T02:05:12.972Z,7.10
2018-04-25T02:07:42.610Z,8.87
2018-04-25T02:10:11.520Z,8.30
2018-04-25T02:12:40.432Z,8.70
2018-04-25T02:15:09.276Z,9.50
2018-04-25T02:17:38.184Z,8.20
2018-04-25T02:20:07.816Z,6.37
2018-04-25T02:22:36.683Z,7.90
2018-04-25T02:25:05.587Z,8.53
2018-04-25T02:27:34.451Z,7.80
2018-04-25T02:30:03.324Z,8.00
2018-04-25T02:32:32.232Z,8.17
2018-04-25T02:35:01.179Z,8.13
2018-04-25T02:37:30.055Z,6.20
2018-04-25T02:39:58.960Z,8.80
2018-04-25T02:42:28.596Z,8.13
2018-04-25T02:44:57.469Z,6.90
2018-04-25T02:47:26.363Z,8.07
2018-04-25T02:49:55.227Z,9.67
2018-04-25T02:52:24.089Z,9.90
2018-04-25T02:54:52.977Z,8.23
2018-04-25T02:57:21.849Z,9.23
2018-04-25T02:59:50.741Z,9.73
2018-04-25T03:02:19.681Z,8.00
2018-04-25T03:04:49.326Z,10.77
2018-04-25T03:07:18.197Z,6.97
2018-04-25T03:09:47.064Z,7.60
2018-04-25T03:12:15.980Z,8.43
2018-04-25T03:14:45.609Z,9.00
2018-04-25T03:17:14.476Z,7.30
2018-04-25T03:19:43.379Z,8.27
2018-04-25T03:22:12.240Z,7.57
2018-04-25T03:24:41.123Z,7.40
2018-04-25T03:27:10.110Z,9.07
2018-04-25T03:29:38.976Z,7.50
2018-04-25T03:32:08.563Z,7.93
2018-04-25T03:34:37.471Z,8.20
2018-04-25T03:37:06.365Z,9.30
2018-04-25T03:39:35.292Z,7.77
2018-04-25T03:42:05.132Z,10.30
2018-04-25T03:44:35.223Z,10.47
2018-04-25T03:47:19.999Z,7.80
2018-04-25T03:49:48.909Z,7.90
2018-04-25T03:52:17.809Z,8.97
2018-04-25T03:54:46.797Z,7.40
2018-04-25T03:57:15.684Z,8.23
2018-04-25T03:59:44.547Z,8.10
2018-04-25T04:02:13.428Z,8.00
2018-04-25T04:04:42.307Z,7.50
2018-04-25T04:07:11.203Z,10.53
2018-04-25T04:09:40.091Z,7.93
2018-04-25T04:12:08.975Z,9.17
2018-04-25T04:14:37.846Z,10.53
2018-04-25T04:17:06.747Z,7.30
2018-04-25T04:19:36.376Z,8.03
2018-04-25T04:22:05.227Z,9.67
2018-04-25T04:24:34.132Z,9.30
2018-04-25T04:27:02.996Z,9.30
2018-04-25T04:29:31.872Z,11.27
2018-04-25T04:32:01.540Z,8.90
2018-04-25T04:34:30.440Z,10.10
2018-04-25T04:36:59.335Z,10.70
2018-04-25T04:39:28.225Z,8.73
2018-04-25T04:41:57.131Z,9.23
2018-04-25T04:44:26.767Z,10.90
2018-04-25T04:46:55.655Z,9.33
2018-04-25T04:49:24.596Z,9.00
2018-04-25T04:51:53.457Z,10.30
2018-04-25T04:54:24.134Z,7.27
2018-04-25T04:56:53.189Z,6.80
2018-04-25T04:59:22.169Z,12.73
2018-04-25T05:01:51.127Z,7.37
2018-04-25T05:04:20.032Z,6.73
2018-04-25T05:06:48.929Z,7.43
2018-04-25T05:09:17.819Z,7.23
2018-04-25T05:11:47.482Z,10.53
2018-04-25T05:14:16.392Z,6.00
2018-04-25T05:16:46.041Z,9.77
2018-04-25T05:19:14.944Z,10.60
2018-04-25T05:21:43.849Z,11.43
2018-04-25T05:24:12.725Z,7.67
2018-04-25T05:26:41.620Z,9.97
2018-04-25T05:29:10.503Z,11.50
2018-04-25T05:31:39.396Z,9.13
2018-04-25T05:34:08.371Z,10.47
2018-04-25T05:36:37.287Z,11.67
2018-04-25T05:39:06.932Z,9.80
2018-04-25T05:41:35.840Z,9.47
2018-04-25T05:44:05.504Z,6.73
2018-04-25T05:46:34.382Z,9.43
2018-04-25T05:49:03.296Z,9.83
2018-04-25T05:51:32.968Z,14.07
2018-04-25T05:54:01.844Z,9.87
2018-04-25T05:56:30.744Z,10.53
2018-04-25T05:59:00.774Z,9.67
2018-04-25T06:01:29.795Z,9.33
2018-04-25T06:03:58.688Z,8.47
2018-04-25T06:06:28.334Z,7.67
2018-04-25T06:08:57.236Z,10.43
2018-04-25T06:11:26.134Z,6.97
2018-04-25T06:13:56.631Z,9.97
2018-04-25T06:16:26.296Z,9.33
2018-04-25T06:18:55.219Z,10.17
2018-04-25T06:21:24.099Z,8.37
2018-04-25T06:23:52.979Z,10.67
2018-04-25T06:26:21.884Z,8.57
2018-04-25T06:28:50.768Z,8.93
2018-04-25T06:31:19.645Z,8.73
2018-04-25T06:33:48.544Z,8.23
2018-04-25T06:36:17.455Z,10.63
2018-04-25T06:38:46.336Z,8.37
2018-04-25T06:41:16.002Z,13.07
2018-04-25T06:43:45.652Z,11.93
2018-04-25T06:46:14.587Z,12.00
2018-04-25T06:48:43.461Z,7.30
2018-04-25T06:51:12.343Z,11.17
2018-04-25T06:53:41.250Z,14.37
2018-04-25T06:56:10.928Z,11.03
2018-04-25T06:58:39.820Z,11.53
2018-04-25T07:01:08.721Z,14.13
2018-04-25T07:03:37.603Z,9.53
2018-04-25T07:06:06.517Z,8.00
2018-04-25T07:08:35.394Z,10.50
2018-04-25T07:11:04.270Z,9.37
2018-04-25T07:13:33.175Z,8.60
2018-04-25T07:16:02.053Z,12.47
2018-04-25T07:18:30.938Z,27.10
2018-04-25T07:20:59.854Z,9.00
2018-04-25T07:23:28.729Z,9.07
2018-04-25T07:25:57.608Z,12.33
2018-04-25T07:28:27.420Z,10.87
2018-04-25T07:30:56.300Z,13.93
2018-04-25T07:33:25.248Z,10.40
2018-04-25T07:35:54.284Z,10.77
2018-04-25T07:38:23.196Z,9.10
2018-04-25T07:40:52.096Z,8.43
2018-04-25T07:43:20.968Z,7.77
2018-04-25T07:45:49.852Z,11.17
2018-04-25T07:48:18.805Z,10.87
2018-04-25T07:50:47.685Z,8.20
2018-04-25T07:53:16.580Z,6.20
2018-04-25T07:55:45.474Z,9.63
2018-04-25T07:58:14.355Z,8.50
2018-04-25T08:00:43.226Z,7.53
2018-04-25T08:03:12.119Z,7.50
2018-04-25T08:05:40.998Z,8.47
2018-04-25T08:08:09.916Z,9.10
2018-04-25T08:10:38.803Z,7.00
2018-04-25T08:13:25.731Z,6.73
2018-04-25T08:16:12.691Z,8.03
2018-04-25T08:22:09.552Z,8.07
2018-04-25T08:24:38.447Z,6.97
2018-04-25T08:27:08.139Z,8.97
2018-04-25T08:29:37.792Z,7.40
2018-04-25T08:32:06.659Z,11.37
2018-04-25T08:34:35.574Z,8.57
2018-04-25T08:37:04.483Z,7.93
2018-04-25T08:39:33.357Z,7.70
2018-04-25T08:42:02.247Z,9.47
2018-04-25T08:44:31.154Z,7.60
2018-04-25T08:47:00.023Z,9.50
2018-04-25T08:49:28.900Z,7.20
2018-04-25T08:51:57.797Z,7.27
2018-04-25T08:54:26.667Z,7.37
2018-04-25T08:56:55.623Z,8.70
2018-04-25T08:59:24.495Z,7.50
2018-04-25T09:01:53.395Z,7.87
2018-04-25T09:04:22.292Z,6.23
2018-04-25T09:06:51.943Z,10.53
2018-04-25T09:09:20.856Z,9.53
2018-04-25T09:11:50.494Z,8.37
2018-04-25T09:14:19.379Z,7.13
2018-04-25T09:16:48.271Z,9.73
2018-04-25T09:19:17.162Z,12.67
2018-04-25T09:21:46.853Z,10.17
2018-04-25T09:24:15.728Z,7.00
2018-04-25T09:26:47.172Z,8.80
2018-04-25T09:29:16.938Z,8.20
2018-04-25T09:31:45.822Z,6.50
2018-04-25T09:34:14.728Z,9.10
2018-04-25T09:36:44.368Z,7.93
2018-04-25T09:39:13.239Z,6.77
2018-04-25T09:41:42.160Z,7.87
2018-04-25T09:44:11.796Z,7.47
2018-04-25T09:46:40.667Z,6.57
2018-04-25T09:49:09.582Z,12.27
2018-04-25T09:51:38.455Z,10.57
2018-04-25T09:54:07.327Z,8.67
2018-04-25T09:56:36.242Z,7.43
2018-04-25T09:59:05.121Z,7.50
2018-04-25T10:01:34.012Z,6.20
2018-04-25T10:04:02.972Z,6.67
2018-04-25T10:06:31.839Z,7.27
2018-04-25T10:09:00.759Z,6.87
2018-04-25T10:11:30.399Z,7.37
2018-04-25T10:14:00.063Z,6.33
2018-04-25T10:16:28.946Z,8.10
2018-04-25T10:18:57.886Z,7.27
2018-04-25T10:21:26.804Z,9.60
2018-04-25T10:23:55.725Z,7.20
2018-04-25T10:26:24.597Z,7.90
2018-04-25T10:28:53.463Z,6.90
2018-04-25T10:31:23.409Z,6.23
2018-04-25T10:33:53.476Z,6.43
2018-04-25T10:36:23.507Z,6.67
2018-04-25T10:38:52.499Z,5.90
2018-04-25T10:41:21.377Z,7.67
2018-04-25T10:43:50.296Z,12.43
2018-04-25T10:46:19.177Z,7.00
2018-04-25T10:48:48.067Z,6.73
2018-04-25T10:51:18.975Z,7.23
2018-04-25T10:53:48.620Z,5.80
2018-04-25T10:56:17.568Z,6.77
2018-04-25T10:58:46.459Z,11.07
2018-04-25T11:01:15.373Z,8.03
2018-04-25T11:03:44.269Z,9.90
2018-04-25T11:06:13.142Z,7.80
2018-04-25T11:08:42.011Z,7.23
2018-04-25T11:11:10.904Z,6.30
2018-04-25T11:13:39.806Z,8.50
2018-04-25T11:16:08.803Z,8.07
2018-04-25T11:18:38.442Z,8.10
2018-04-25T11:21:07.563Z,8.57
2018-04-25T11:23:36.431Z,8.63
2018-04-25T11:26:05.387Z,7.40
2018-04-25T11:28:34.271Z,8.63
2018-04-25T11:31:03.236Z,7.63
2018-04-25T11:33:32.160Z,8.50
2018-04-25T11:36:01.799Z,12.37
2018-04-25T11:38:30.671Z,8.07
2018-04-25T11:40:59.671Z,6.20
2018-04-25T11:43:28.587Z,7.83
2018-04-25T11:45:57.462Z,7.07
2018-04-25T11:48:27.593Z,8.93
2018-04-25T11:50:56.540Z,6.97
2018-04-25T11:53:26.459Z,6.47
2018-04-25T11:55:55.374Z,6.77
2018-04-25T11:58:27.255Z,6.80
2018-04-25T12:00:56.347Z,8.33
2018-04-25T12:03:25.220Z,6.63
2018-04-25T12:05:54.131Z,9.37
2018-04-25T12:08:23.211Z,7.23
2018-04-25T12:10:52.940Z,7.30
2018-04-25T12:13:22.876Z,7.20
2018-04-25T12:15:51.827Z,6.63
2018-04-25T12:18:22.070Z,7.50
2018-04-25T12:20:51.067Z,8.10
2018-04-25T12:23:19.939Z,7.33
2018-04-25T12:25:48.813Z,7.60
2018-04-25T12:28:17.709Z,7.87
2018-04-25T12:30:46.623Z,6.70
2018-04-25T12:33:16.287Z,8.00
2018-04-25T12:35:45.157Z,7.67
2018-04-25T12:38:14.853Z,7.03
2018-04-25T12:40:43.756Z,7.73
2018-04-25T12:43:13.405Z,7.30
2018-04-25T12:45:42.274Z,6.40
2018-04-25T12:48:11.159Z,9.43
2018-04-25T12:50:40.023Z,8.63
2018-04-25T12:53:08.918Z,6.93
2018-04-25T12:55:37.824Z,6.83
2018-04-25T12:58:07.465Z,8.33
2018-04-25T13:00:36.335Z,7.47
2018-04-25T13:03:05.243Z,7.10
2018-04-25T13:05:34.116Z,8.80
2018-04-25T13:08:03.020Z,7.13
2018-04-25T13:10:31.895Z,7.33
2018-04-25T13:13:00.766Z,7.37
2018-04-25T13:15:30.419Z,6.80
2018-04-25T13:17:59.358Z,6.50
2018-04-25T13:20:28.283Z,7.37
2018-04-25T13:22:57.176Z,8.37
2018-04-25T13:25:26.808Z,9.00
2018-04-25T13:27:55.776Z,6.63
2018-04-25T13:30:24.647Z,7.77
2018-04-25T13:32:53.515Z,7.73
2018-04-25T13:35:23.582Z,8.47
2018-04-25T13:37:52.808Z,7.27
2018-04-25T13:40:21.699Z,7.17
2018-04-25T13:42:51.155Z,6.87
2018-04-25T13:45:20.027Z,7.00
2018-04-25T13:47:48.955Z,6.37
2018-04-25T13:50:17.899Z,7.30
2018-04-25T13:52:46.848Z,8.17
2018-04-25T13:55:16.692Z,7.07
2018-04-25T13:57:45.567Z,7.27
2018-04-25T14:00:14.635Z,9.70
2018-04-25T14:02:43.548Z,7.93
2018-04-25T14:05:12.443Z,9.67
2018-04-25T14:07:42.107Z,6.47
2018-04-25T14:10:10.983Z,6.93
2018-04-25T14:12:39.885Z,22.30
2018-04-25T14:15:08.848Z,12.77
2018-04-25T14:17:37.739Z,11.10
2018-04-25T14:20:06.619Z,6.47
2018-04-25T14:22:35.537Z,10.67
2018-04-25T14:25:04.471Z,11.10
2018-04-25T14:27:34.130Z,9.93
2018-04-25T14:30:03.104Z,7.07
2018-04-25T14:32:32.128Z,8.50
2018-04-25T14:35:01.764Z,6.40
2018-04-25T14:37:30.634Z,5.37
2018-04-25T14:39:59.519Z,8.37
2018-04-25T14:42:28.391Z,9.40
2018-04-25T14:44:57.303Z,12.87
2018-04-25T14:47:26.175Z,6.90
2018-04-25T14:49:55.091Z,9.20
2018-04-25T14:52:23.984Z,8.03
2018-04-25T14:54:53.629Z,18.80
2018-04-25T14:57:22.499Z,11.17
2018-04-25T14:59:51.411Z,8.10
2018-04-25T15:02:20.304Z,7.20
2018-04-25T15:04:50.215Z,11.03
2018-04-25T15:07:19.083Z,7.47
2018-04-25T15:09:48.718Z,8.07
2018-04-25T15:12:17.726Z,10.07
2018-04-25T15:14:46.619Z,8.83
2018-04-25T15:17:16.305Z,12.63
2018-04-25T15:19:45.970Z,10.13
2018-04-25T15:22:14.873Z,8.00
2018-04-25T15:24:44.531Z,8.50
2018-04-25T15:27:13.405Z,7.33
2018-04-25T15:29:43.092Z,8.93
2018-04-25T15:32:12.041Z,8.43
2018-04-25T15:34:41.720Z,10.13
2018-04-25T15:37:11.357Z,7.50
2018-04-25T15:39:40.223Z,8.53
2018-04-25T15:42:09.118Z,9.07
2018-04-25T15:44:37.988Z,7.23
2018-04-25T15:47:06.903Z,8.40
2018-04-25T15:49:36.541Z,9.07
2018-04-25T15:52:05.460Z,7.70
2018-04-25T15:54:34.404Z,8.37
2018-04-25T15:57:03.292Z,8.77
2018-04-25T15:59:32.183Z,8.30
2018-04-25T16:02:01.086Z,9.90
2018-04-25T16:04:29.976Z,10.40
2018-04-25T16:06:58.851Z,12.43
2018-04-25T16:09:29.601Z,12.13
2018-04-25T16:11:58.480Z,11.90
2018-04-25T16:14:27.386Z,11.93
2018-04-25T16:16:57.058Z,9.07
2018-04-25T16:19:25.939Z,9.60
2018-04-25T16:21:54.815Z,6.17
2018-04-25T16:24:23.728Z,10.00
2018-04-25T16:26:52.629Z,10.83
2018-04-25T16:29:21.621Z,11.13
2018-04-25T16:31:50.515Z,10.50
2018-04-25T16:34:19.451Z,8.60
2018-04-25T16:36:48.345Z,9.33
2018-04-25T16:39:17.400Z,9.53
2018-04-25T16:41:46.311Z,14.23
2018-04-25T16:44:16.208Z,9.93
2018-04-25T16:46:45.930Z,11.33
2018-04-25T16:49:15.591Z,8.77
2018-04-25T16:51:44.551Z,10.73
2018-04-25T16:54:13.427Z,7.83
2018-04-25T16:56:42.325Z,7.93
2018-04-25T16:59:11.365Z,12.00
2018-04-25T17:01:40.262Z,12.03
2018-04-25T17:04:09.161Z,8.10
2018-04-25T17:06:38.063Z,10.87
2018-04-25T17:09:07.738Z,11.83
2018-04-25T17:11:37.383Z,13.13
2018-04-25T17:14:06.262Z,15.13
2018-04-25T17:16:35.155Z,9.93
2018-04-25T17:19:04.071Z,10.63
2018-04-25T17:21:33.708Z,10.47
2018-04-25T17:24:02.900Z,10.63
2018-04-25T17:26:31.791Z,11.20
2018-04-25T17:29:00.703Z,12.93
2018-04-25T17:31:29.607Z,7.83
2018-04-25T17:33:58.487Z,10.07
2018-04-25T17:36:27.356Z,9.93
2018-04-25T17:38:56.273Z,11.97
2018-04-25T17:41:25.147Z,8.47
2018-04-25T17:53:43.052Z,11.30
2018-04-25T17:56:12.739Z,12.27
2018-04-25T17:58:41.626Z,9.60
2018-04-25T18:01:10.521Z,14.27
2018-04-25T18:03:40.163Z,13.73
2018-04-25T18:06:09.072Z,13.57
2018-04-25T18:08:38.009Z,14.23
2018-04-25T18:11:06.891Z,14.43
2018-04-25T18:13:35.802Z,12.63
2018-04-25T18:16:04.828Z,11.93
2018-04-25T18:18:33.709Z,11.43
2018-04-25T18:21:02.605Z,13.77
2018-04-25T18:23:31.731Z,14.33
2018-04-25T18:26:01.392Z,13.20
2018-04-25T18:28:30.319Z,11.57
2018-04-25T18:30:59.199Z,15.43
2018-04-25T18:33:28.080Z,10.57
2018-04-25T18:35:57.100Z,12.37
2018-04-25T18:38:28.840Z,14.13
2018-04-25T18:40:57.753Z,12.77
2018-04-25T18:43:27.749Z,13.90
2018-04-25T18:45:56.683Z,14.97
2018-04-25T18:48:25.802Z,15.63
2018-04-25T18:50:55.448Z,15.83
2018-04-25T18:53:24.342Z,12.07
2018-04-25T18:55:53.247Z,13.47
2018-04-25T18:58:22.955Z,13.27
2018-04-25T19:00:52.003Z,11.67
2018-04-25T19:03:20.967Z,16.03
2018-04-25T19:05:49.863Z,13.57
2018-04-25T19:08:19.691Z,14.40
2018-04-25T19:10:48.641Z,15.43
2018-04-25T19:13:18.293Z,15.17
2018-04-25T19:15:47.227Z,15.63
2018-04-25T19:18:16.102Z,15.20
2018-04-25T19:20:44.991Z,21.37
2018-04-25T19:23:13.889Z,23.83
2018-04-25T19:25:42.878Z,32.73
2018-04-25T19:28:11.760Z,41.93
2018-04-25T19:30:40.647Z,22.07
2018-04-25T19:33:09.652Z,28.73
2018-04-25T19:35:38.535Z,35.63
2018-04-25T19:38:07.719Z,28.73
2018-04-25T19:40:36.629Z,22.77
2018-04-25T19:43:05.747Z,20.77
2018-04-25T19:45:35.424Z,20.97
2018-04-25T19:48:04.351Z,21.00
2018-04-25T19:50:33.231Z,17.30
2018-04-25T19:53:02.107Z,16.10
2018-04-25T19:55:31.025Z,14.33
2018-04-25T19:57:59.903Z,16.80
2018-04-25T20:00:28.777Z,18.60
2018-04-25T20:02:57.713Z,17.47
2018-04-25T20:05:26.607Z,17.47
2018-04-25T20:07:55.523Z,17.67
2018-04-25T20:10:24.459Z,15.33
2018-04-25T20:12:53.335Z,17.90
2018-04-25T20:15:22.371Z,14.67
2018-04-25T20:17:51.284Z,21.37
2018-04-25T20:20:20.235Z,15.73
2018-04-25T20:22:49.140Z,12.77
2018-04-25T20:25:18.775Z,12.83
2018-04-25T20:27:47.735Z,11.07
2018-04-25T20:30:17.389Z,10.13
2018-04-25T20:32:46.447Z,10.33
2018-04-25T20:35:15.368Z,10.90
2018-04-25T20:37:44.268Z,11.13
2018-04-25T20:40:13.215Z,14.50
2018-04-25T20:42:42.110Z,10.23
2018-04-25T20:45:11.835Z,11.87
2018-04-25T20:47:40.746Z,17.00
2018-04-25T20:50:09.631Z,13.57
2018-04-25T20:52:38.763Z,13.40
2018-04-25T20:55:07.658Z,11.90
2018-04-25T20:57:36.548Z,12.23
2018-04-25T21:00:05.497Z,14.33
2018-04-25T21:02:34.493Z,11.83
2018-04-25T21:05:09.465Z,12.67
2018-04-25T21:07:39.114Z,11.20
2018-04-25T21:10:08.037Z,12.67
2018-04-25T21:12:37.682Z,11.77
2018-04-25T21:15:06.556Z,12.80
2018-04-25T21:17:35.517Z,12.37
2018-04-25T21:20:04.414Z,12.40
2018-04-25T21:22:33.297Z,11.30
2018-04-25T21:25:02.219Z,12.73
2018-04-25T21:27:31.097Z,12.33
2018-04-25T21:33:28.121Z,11.00
2018-04-25T21:35:57.969Z,14.23
2018-04-25T21:38:29.120Z,13.17
2018-04-25T21:40:58.791Z,10.53
2018-04-25T21:43:27.672Z,12.70
2018-04-25T21:45:56.597Z,13.23
2018-04-25T21:48:26.967Z,12.20
2018-04-25T21:50:55.875Z,10.90
2018-04-25T21:53:24.747Z,11.13
2018-04-25T21:55:53.637Z,13.60
2018-04-25T21:58:22.531Z,12.13
2018-04-25T22:00:52.532Z,12.60
2018-04-25T22:03:21.440Z,11.90
2018-04-25T22:05:50.339Z,11.20
2018-04-25T22:08:19.984Z,11.33
2018-04-25T22:10:49.922Z,10.50
2018-04-25T22:13:18.819Z,9.97
2018-04-25T22:15:47.688Z,11.20
2018-04-25T22:18:16.611Z,11.43
2018-04-25T22:20:45.491Z,13.17
2018-04-25T22:23:14.368Z,10.97
2018-04-25T22:25:44.486Z,12.17
2018-04-25T22:28:13.368Z,10.93
2018-04-25T22:30:43.015Z,15.17
2018-04-25T22:33:11.944Z,11.67
2018-04-25T22:35:41.603Z,11.67
2018-04-25T22:38:10.493Z,12.40
2018-04-25T22:40:39.469Z,13.00
2018-04-25T22:43:08.399Z,12.33
2018-04-25T22:45:37.280Z,13.00
2018-04-25T22:48:06.160Z,13.57
2018-04-25T22:50:35.081Z,12.93
2018-04-25T22:53:04.725Z,13.70
2018-04-25T22:55:33.599Z,13.70
2018-04-25T22:58:02.497Z,14.40
2018-04-25T23:00:31.395Z,11.73
2018-04-25T23:03:00.322Z,13.40
2018-04-25T23:05:29.241Z,13.53
2018-04-25T23:07:58.983Z,9.83
2018-04-25T23:10:27.879Z,12.17
2018-04-25T23:12:56.783Z,12.10
2018-04-25T23:15:25.663Z,11.70
2018-04-25T23:17:55.300Z,12.03
2018-04-25T23:20:24.219Z,12.83
2018-04-25T23:22:53.104Z,11.73
2018-04-25T23:25:22.759Z,12.93
2018-04-25T23:27:51.682Z,11.63
2018-04-25T23:30:21.336Z,13.33
2018-04-25T23:32:50.211Z,12.30
2018-04-25T23:35:19.107Z,10.77
2018-04-25T23:37:47.994Z,9.77
2018-04-25T23:40:17.727Z,11.03
2018-04-25T23:42:46.636Z,11.33
2018-04-25T23:45:15.511Z,11.50
2018-04-25T23:47:44.430Z,11.60
2018-04-25T23:50:13.307Z,10.90
2018-04-25T23:52:42.181Z,11.27
2018-04-25T23:55:11.109Z,9.67
2018-04-25T23:57:39.987Z,12.80
